Time;durP1;ratioP1;P1;durP2;ratioP2;P2;SDS_P1;SDS_P2;PMS_P1;PMS_P2;Temp;Humidity;BMP_temperature;BMP_pressure;BME280_temperature;BME280_humidity;BME280_pressure;Samples;Min_cycle;Max_cycle;Signal;HPM_P1;HPM_P2
2022/10/26 00:01:09;;;;;;;3.87;3.40;;;;;;;12.56;97.19;100665.03;1708685;84;21110;-89
2022/10/26 00:03:37;;;;;;;4.50;3.70;;;;;;;12.55;97.27;100654.61;1683137;85;20996;-87
2022/10/26 00:06:15;;;;;;;4.15;3.58;;;;;;;12.56;97.53;100652.33;1708445;84;20924;-90
2022/10/26 00:08:41;;;;;;;7.08;4.17;;;;;;;12.54;97.57;100658.16;1683126;85;20980;-88
2022/10/26 00:11:08;;;;;;;5.87;3.75;;;;;;;12.52;97.72;100652.20;1708478;82;20991;-87
2022/10/26 00:13:36;;;;;;;3.70;3.17;;;;;;;12.50;97.75;100649.66;1709448;84;21215;-88
2022/10/26 00:16:11;;;;;;;3.27;3.00;;;;;;;12.48;97.81;100642.82;1680475;85;21372;-88
2022/10/26 00:18:37;;;;;;;4.07;3.53;;;;;;;12.48;97.86;100642.82;1711991;83;21026;-90
2022/10/26 00:21:05;;;;;;;4.97;3.45;;;;;;;12.48;97.82;100642.34;1683737;85;21239;-88
2022/10/26 00:23:34;;;;;;;5.85;3.42;;;;;;;12.48;97.78;100633.13;1709284;82;21484;-89
2022/10/26 00:26:01;;;;;;;6.83;3.98;;;;;;;12.48;97.80;100629.19;1709430;84;21838;-89
2022/10/26 00:28:28;;;;;;;5.42;3.90;;;;;;;12.50;97.82;100635.67;1680225;85;20969;-87
2022/10/26 00:31:00;;;;;;;7.50;3.62;;;;;;;12.50;97.80;100631.72;1711567;84;20888;-89
2022/10/26 00:33:28;;;;;;;5.47;3.33;;;;;;;12.50;97.73;100626.47;1692625;84;20955;-88
2022/10/26 00:35:55;;;;;;;4.47;3.52;;;;;;;12.47;97.83;100618.28;1685997;83;20932;-88
2022/10/26 00:38:23;;;;;;;4.47;3.85;;;;;;;12.47;97.84;100616.97;1709309;84;21164;-88
2022/10/26 00:40:49;;;;;;;6.15;3.25;;;;;;;12.48;97.98;100615.20;1683562;85;20996;-89
2022/10/26 00:43:30;;;;;;;4.70;3.65;;;;;;;12.48;98.04;100617.35;1708742;84;20936;-90
2022/10/26 00:45:57;;;;;;;4.50;3.10;;;;;;;12.50;98.16;100614.62;1708736;84;20948;-90
2022/10/26 00:48:29;;;;;;;5.50;2.90;;;;;;;12.48;98.28;100609.46;1680531;85;20910;-90
2022/10/26 00:50:57;;;;;;;3.75;3.40;;;;;;;12.50;98.44;100604.11;1678791;85;21550;-90
2022/10/26 00:53:24;;;;;;;5.80;3.83;;;;;;;12.48;98.66;100595.00;1708412;84;21352;-90
2022/10/26 00:55:51;;;;;;;4.42;3.22;;;;;;;12.50;98.85;100597.53;1680469;85;20938;-87
2022/10/26 00:58:17;;;;;;;3.98;2.62;;;;;;;12.48;99.02;100589.73;1657379;85;20953;-89
2022/10/26 01:00:44;;;;;;;4.08;2.85;;;;;;;12.50;99.26;100589.16;1680181;85;20889;-90
2022/10/26 01:03:10;;;;;;;4.97;2.75;;;;;;;12.50;99.29;100592.27;1680179;85;21111;-87
2022/10/26 01:05:40;;;;;;;5.90;3.35;;;;;;;12.51;99.48;100578.16;1708764;84;20962;-89
2022/10/26 01:08:07;;;;;;;7.17;3.00;;;;;;;12.51;99.72;100580.78;1679939;85;21055;-88
2022/10/26 01:10:37;;;;;;;5.33;2.95;;;;;;;12.50;99.85;100573.86;1712200;84;20943;-86
2022/10/26 01:13:06;;;;;;;5.92;3.62;;;;;;;12.48;100.00;100575.27;1683579;85;20881;-92
2022/10/26 01:16:23;;;;;;;5.10;3.40;;;;;;;12.47;100.00;100567.47;1708435;84;21324;-91
2022/10/26 01:19:16;;;;;;;3.95;3.65;;;;;;;12.46;100.00;100568.44;1683183;85;20984;-89
2022/10/26 01:22:02;;;;;;;3.72;2.95;;;;;;;12.43;100.00;100565.06;1707288;82;20947;-88
2022/10/26 01:24:50;;;;;;;3.77;3.30;;;;;;;12.42;100.00;100561.22;1667381;85;20920;-88
2022/10/26 01:27:27;;;;;;;4.22;3.27;;;;;;;12.40;100.00;100557.84;1708583;84;20880;-87
2022/10/26 01:30:25;;;;;;;4.40;2.98;;;;;;;12.38;100.00;100552.71;1708249;83;22067;-86
2022/10/26 01:33:24;;;;;;;5.45;3.30;;;;;;;12.38;100.00;100541.33;1708235;84;20847;-86
2022/10/26 01:35:56;;;;;;;3.37;2.70;;;;;;;12.37;100.00;100544.44;1679519;85;20977;-86
2022/10/26 01:38:34;;;;;;;3.67;2.80;;;;;;;12.35;100.00;100545.02;1676472;85;21039;-86
2022/10/26 01:41:13;;;;;;;3.33;2.87;;;;;;;12.36;100.00;100543.22;1684217;85;20933;-87
2022/10/26 01:43:43;;;;;;;5.80;2.90;;;;;;;12.35;100.00;100547.64;1708360;83;21448;-85
2022/10/26 01:46:10;;;;;;;3.58;2.90;;;;;;;12.33;100.00;100537.70;1708472;84;20875;-86
2022/10/26 01:48:37;;;;;;;5.25;3.12;;;;;;;12.34;100.00;100531.52;1680101;85;20867;-87
2022/10/26 01:51:03;;;;;;;4.58;3.17;;;;;;;12.33;100.00;100532.44;1712923;82;21742;-88
2022/10/26 01:53:30;;;;;;;2.83;2.30;;;;;;;12.33;99.95;100523.72;1686147;83;20991;-85
2022/10/26 01:55:56;;;;;;;2.50;2.30;;;;;;;12.32;99.84;100527.31;1709134;81;21296;-86
2022/10/26 01:58:57;;;;;;;6.50;2.47;;;;;;;12.32;99.75;100519.42;1709024;84;20864;-84
2022/10/26 02:01:51;;;;;;;3.50;2.33;;;;;;;12.31;99.91;100521.67;1708971;84;20922;-86
2022/10/26 02:04:47;;;;;;;6.40;3.05;;;;;;;12.31;100.00;100523.81;1680191;85;20961;-85
2022/10/26 02:07:53;;;;;;;3.77;2.60;;;;;;;12.30;100.00;100518.20;1711806;84;21360;-87
2022/10/26 02:14:11;;;;;;;3.17;2.55;;;;;;;12.31;100.00;100519.88;1801364;77;22637;-85
2022/10/26 02:16:43;;;;;;;3.08;2.65;;;;;;;12.26;100.00;100518.04;1761621;78;20889;-86
2022/10/26 02:19:30;;;;;;;5.03;2.90;;;;;;;12.27;100.00;100522.34;1758808;80;21312;-88
2022/10/26 02:22:21;;;;;;;5.53;2.77;;;;;;;12.27;100.00;100510.50;1755467;81;20888;-88
2022/10/26 02:24:49;;;;;;;2.77;2.08;;;;;;;12.27;100.00;100504.41;1755416;81;20908;-86
2022/10/26 02:27:23;;;;;;;3.83;2.58;;;;;;;12.26;100.00;100504.06;1758485;80;21014;-89
2022/10/26 02:29:51;;;;;;;3.85;3.42;;;;;;;12.26;100.00;100512.78;1758756;80;20880;-87
2022/10/26 02:32:18;;;;;;;3.20;2.55;;;;;;;12.24;100.00;100501.53;1739661;80;21123;-85
2022/10/26 02:34:45;;;;;;;4.30;2.67;;;;;;;12.22;100.00;100508.20;1758375;80;20917;-87
2022/10/26 02:37:12;;;;;;;4.72;3.10;;;;;;;12.21;100.00;100507.84;1758775;80;20951;-86
2022/10/26 02:39:38;;;;;;;5.55;3.90;;;;;;;12.22;100.00;100501.63;1758574;80;20948;-87
2022/10/26 02:42:06;;;;;;;3.33;3.02;;;;;;;12.22;100.00;100509.52;1758472;80;20896;-86
2022/10/26 02:44:43;;;;;;;6.72;3.50;;;;;;;12.22;100.00;100504.73;1739437;81;21249;-86
2022/10/26 02:47:10;;;;;;;6.40;3.02;;;;;;;12.23;100.00;100511.69;1758587;81;21014;-85
2022/10/26 02:49:37;;;;;;;3.83;2.90;;;;;;;12.23;100.00;100513.00;1758755;80;20888;-87
2022/10/26 02:52:09;;;;;;;3.20;2.87;;;;;;;12.24;100.00;100508.10;1758994;81;20884;-85
2022/10/26 02:54:53;;;;;;;2.70;2.45;;;;;;;12.24;100.00;100508.10;1758322;81;20880;-88
2022/10/26 02:57:33;;;;;;;5.95;3.00;;;;;;;12.26;100.00;100502.75;1758407;80;21231;-87
2022/10/26 03:00:00;;;;;;;3.87;2.40;;;;;;;12.28;100.00;100496.91;1758377;80;20880;-85
2022/10/26 03:02:27;;;;;;;2.45;2.22;;;;;;;12.29;100.00;100492.00;1758548;80;21414;-87
2022/10/26 03:04:53;;;;;;;4.75;3.05;;;;;;;12.31;100.00;100497.52;1758511;81;20941;-86
2022/10/26 03:07:22;;;;;;;3.33;2.27;;;;;;;12.32;100.00;100497.08;1759340;80;21014;-87
2022/10/26 03:09:49;;;;;;;3.52;2.25;;;;;;;12.35;100.00;100504.73;1759843;81;21167;-87
2022/10/26 03:12:16;;;;;;;4.40;2.42;;;;;;;12.34;100.00;100500.41;1756572;78;20984;-86
2022/10/26 03:14:42;;;;;;;2.42;2.15;;;;;;;12.36;100.00;100500.70;1745408;81;21000;-88
2022/10/26 03:17:10;;;;;;;4.42;3.98;;;;;;;12.37;100.00;100499.73;1745495;81;20949;-88
2022/10/26 03:19:36;;;;;;;6.17;4.97;;;;;;;12.39;100.00;100495.21;1745520;81;20847;-88
2022/10/26 03:22:03;;;;;;;9.40;8.43;;;;;;;12.40;100.00;100496.88;1745511;80;21110;-88
2022/10/26 03:24:30;;;;;;;7.83;6.65;;;;;;;12.43;100.00;100502.42;1744911;82;20883;-88
2022/10/26 03:26:56;;;;;;;2.80;2.45;;;;;;;12.44;100.00;100502.30;1744977;80;21295;-90
2022/10/26 03:29:23;;;;;;;3.87;3.30;;;;;;;12.49;100.00;100501.14;1744786;81;20964;-87
2022/10/26 03:31:53;;;;;;;4.28;3.15;;;;;;;12.50;100.00;100494.47;1745168;81;20878;-88
2022/10/26 03:34:21;;;;;;;2.65;2.40;;;;;;;12.50;100.00;100498.41;1745354;81;20837;-88
2022/10/26 03:36:47;;;;;;;2.30;2.10;;;;;;;12.52;100.00;100494.37;1745318;81;21303;-90
2022/10/26 03:39:15;;;;;;;2.20;1.90;;;;;;;12.52;100.00;100495.69;1745340;82;20936;-87
2022/10/26 03:41:43;;;;;;;4.37;2.42;;;;;;;12.53;100.00;100496.03;1744874;80;21078;-88
2022/10/26 03:44:09;;;;;;;2.77;1.75;;;;;;;12.54;100.00;100489.81;1745094;81;20882;-88
2022/10/26 03:46:37;;;;;;;2.95;1.30;;;;;;;12.55;100.00;100483.63;1745335;81;20916;-88
2022/10/26 03:49:04;;;;;;;24.18;21.37;;;;;;;12.56;100.00;100487.47;1744956;81;20952;-89
2022/10/26 03:51:32;;;;;;;15.80;13.22;;;;;;;12.57;100.00;100482.55;1745817;81;20974;-88
2022/10/26 03:54:00;;;;;;;6.60;5.95;;;;;;;12.57;100.00;100477.78;1744767;81;20854;-89
2022/10/26 03:56:28;;;;;;;3.27;2.95;;;;;;;12.59;100.00;100485.92;1744950;81;20948;-88
2022/10/26 03:58:55;;;;;;;7.97;5.25;;;;;;;12.60;100.00;100484.95;1745064;81;21255;-89
2022/10/26 04:01:22;;;;;;;4.55;3.25;;;;;;;12.62;100.00;100483.55;1744904;81;20971;-87
2022/10/26 04:03:48;;;;;;;3.15;1.77;;;;;;;12.62;100.00;100480.91;1745128;80;21516;-89
2022/10/26 04:06:15;;;;;;;1.95;1.55;;;;;;;12.63;100.00;100476.87;1745057;81;20937;-89
2022/10/26 04:08:42;;;;;;;2.40;1.22;;;;;;;12.63;100.00;100476.03;1745069;81;20980;-88
2022/10/26 04:11:13;;;;;;;2.17;1.10;;;;;;;12.65;100.00;100478.92;1745433;82;20894;-91
2022/10/26 04:13:41;;;;;;;1.62;1.20;;;;;;;12.67;100.00;100472.69;1746972;80;21057;-90
2022/10/26 04:16:08;;;;;;;2.75;1.40;;;;;;;12.67;100.00;100477.47;1758493;81;20899;-90
2022/10/26 04:18:35;;;;;;;1.45;1.10;;;;;;;12.69;100.00;100469.48;1758397;81;20912;-88
2022/10/26 04:21:02;;;;;;;0.95;0.93;;;;;;;12.67;100.00;100466.95;1759029;81;21002;-89
2022/10/26 04:23:29;;;;;;;3.85;2.87;;;;;;;12.68;100.00;100456.80;1758715;81;21362;-89
2022/10/26 04:25:57;;;;;;;4.55;3.87;;;;;;;12.70;100.00;100458.02;1760258;78;20975;-87
2022/10/26 04:28:26;;;;;;;2.25;1.87;;;;;;;12.70;100.00;100464.12;1761397;78;21883;-88
2022/10/26 04:30:53;;;;;;;3.33;1.87;;;;;;;12.70;100.00;100452.28;1759346;81;20928;-89
2022/10/26 04:33:21;;;;;;;2.42;1.55;;;;;;;12.72;100.00;100457.44;1758740;80;20896;-88
2022/10/26 04:35:48;;;;;;;2.02;1.02;;;;;;;12.73;100.00;100459.94;1758527;81;21196;-89
2022/10/26 04:38:14;;;;;;;1.50;0.93;;;;;;;12.75;100.00;100458.52;1758479;81;20932;-88
2022/10/26 04:40:41;;;;;;;1.10;1.00;;;;;;;12.78;100.00;100456.98;1758708;81;20908;-89
2022/10/26 04:43:10;;;;;;;1.00;1.00;;;;;;;12.78;100.00;100459.16;1758441;81;20896;-89
2022/10/26 04:45:37;;;;;;;0.78;0.72;;;;;;;12.79;100.00;100453.41;1758762;80;21427;-87
2022/10/26 04:48:10;;;;;;;2.80;1.50;;;;;;;12.81;100.00;100456.77;1758651;80;21225;-88
2022/10/26 04:50:38;;;;;;;;;;;;;;;12.82;100.00;100461.91;1761505;81;20908;-87
2022/10/26 04:53:08;;;;;;;3.40;1.37;;;;;;;12.82;100.00;100457.95;1759419;81;20120;-88
2022/10/26 04:55:35;;;;;;;1.40;1.22;;;;;;;12.84;100.00;100456.06;1759007;81;20881;-87
2022/10/26 04:58:04;;;;;;;1.25;0.98;;;;;;;12.84;100.00;100454.74;1758496;81;20951;-88
2022/10/26 05:00:31;;;;;;;2.35;1.12;;;;;;;12.87;100.00;100451.05;1758399;80;21250;-89
2022/10/26 05:03:01;;;;;;;2.55;1.90;;;;;;;12.90;100.00;100450.01;1758221;81;20927;-89
2022/10/26 05:05:30;;;;;;;9.70;6.22;;;;;;;12.89;100.00;100448.31;1758060;81;20860;-90
2022/10/26 05:07:57;;;;;;;2.27;1.00;;;;;;;12.91;100.00;100450.36;1741893;81;20857;-88
2022/10/26 05:10:24;;;;;;;3.75;1.50;;;;;;;12.92;100.00;100451.58;1758436;80;20987;-88
2022/10/26 05:12:53;;;;;;;2.40;1.32;;;;;;;12.95;100.00;100451.34;1758057;80;20991;-89
2022/10/26 05:15:21;;;;;;;1.30;1.10;;;;;;;12.96;100.00;100449.54;1759056;80;20853;-92
2022/10/26 05:18:02;;;;;;;1.37;0.90;;;;;;;12.98;100.00;100452.91;1760748;81;20896;-91
2022/10/26 05:20:31;;;;;;;1.60;0.95;;;;;;;13.00;100.00;100457.10;1761126;78;20944;-87
2022/10/26 05:22:59;;;;;;;0.93;0.70;;;;;;;13.01;100.00;100456.16;1761375;78;20888;-87
2022/10/26 05:25:28;;;;;;;2.50;1.00;;;;;;;13.03;100.00;100447.69;1761356;81;21161;-85
2022/10/26 05:28:03;;;;;;;2.25;1.02;;;;;;;13.06;100.00;100457.14;1759819;80;20984;-88
2022/10/26 05:30:31;;;;;;;1.00;0.90;;;;;;;13.10;100.00;100459.09;1758846;80;20916;-89
2022/10/26 05:33:01;;;;;;;2.02;0.90;;;;;;;13.12;100.00;100459.81;1741303;81;21441;-89
2022/10/26 05:35:28;;;;;;;1.90;1.07;;;;;;;13.14;100.00;100455.25;1758633;80;21370;-88
2022/10/26 05:37:55;;;;;;;2.62;0.98;;;;;;;13.17;100.00;100458.52;1758294;81;21433;-89
2022/10/26 05:40:22;;;;;;;0.40;0.40;;;;;;;13.22;100.00;100462.95;1758500;81;20888;-88
2022/10/26 05:42:49;;;;;;;0.72;0.70;;;;;;;13.24;100.00;100458.41;1759389;81;20885;-89
2022/10/26 05:45:19;;;;;;;0.82;0.78;;;;;;;13.26;100.00;100457.83;1761255;78;21042;-89
2022/10/26 05:47:46;;;;;;;1.70;0.90;;;;;;;13.28;100.00;100463.03;1760028;81;20849;-88
2022/10/26 05:50:13;;;;;;;7.30;3.17;;;;;;;13.32;100.00;100463.62;1758436;81;21100;-89
2022/10/26 05:52:44;;;;;;;1.55;1.27;;;;;;;13.34;100.00;100457.77;1758078;81;20928;-86
2022/10/26 05:55:14;;;;;;;1.42;0.60;;;;;;;13.37;100.00;100463.66;1758520;81;20884;-88
2022/10/26 05:57:43;;;;;;;0.50;0.45;;;;;;;13.39;100.00;100461.75;1758044;80;20947;-89
2022/10/26 06:00:24;;;;;;;1.27;0.82;;;;;;;13.42;100.00;100464.63;1758390;80;21006;-88
2022/10/26 06:03:35;;;;;;;0.70;0.70;;;;;;;13.44;100.00;100462.23;1758300;81;21275;-89
2022/10/26 06:06:02;;;;;;;2.05;0.98;;;;;;;13.50;100.00;100462.27;1742129;81;21034;-89
2022/10/26 06:08:30;;;;;;;1.57;0.72;;;;;;;13.54;100.00;100464.18;1758224;81;20900;-88
2022/10/26 06:11:01;;;;;;;1.20;1.10;;;;;;;13.61;100.00;100465.42;1758048;81;20893;-88
2022/10/26 06:13:32;;;;;;;0.70;0.50;;;;;;;13.61;100.00;100465.42;1758256;81;20884;-89
2022/10/26 06:16:06;;;;;;;0.70;0.70;;;;;;;13.63;100.00;100460.39;1758290;80;20841;-88
2022/10/26 06:19:00;;;;;;;5.12;3.98;;;;;;;13.66;100.00;100464.11;1758326;81;20963;-88
2022/10/26 06:21:38;;;;;;;4.95;3.17;;;;;;;13.70;100.00;100457.30;1758296;81;20878;-91
2022/10/26 06:24:33;;;;;;;2.08;1.42;;;;;;;13.75;100.00;100468.33;1758301;80;20975;-89
2022/10/26 06:27:31;;;;;;;1.42;1.22;;;;;;;13.78;100.00;100466.77;1758412;80;20991;-89
2022/10/26 06:30:09;;;;;;;1.62;1.50;;;;;;;13.82;100.00;100467.73;1758343;81;21279;-89
2022/10/26 06:32:35;;;;;;;1.00;0.98;;;;;;;13.86;100.00;100463.91;1758122;80;21421;-88
2022/10/26 06:35:22;;;;;;;1.45;1.27;;;;;;;13.92;100.00;100465.70;1741072;81;21023;-90
2022/10/26 06:37:49;;;;;;;1.90;1.80;;;;;;;13.94;100.00;100467.75;1758037;81;20869;-87
2022/10/26 06:40:17;;;;;;;2.40;1.98;;;;;;;13.99;100.00;100470.89;1758738;81;20939;-87
2022/10/26 06:42:44;;;;;;;2.60;2.40;;;;;;;14.01;100.00;100465.86;1758721;81;21335;-88
2022/10/26 06:45:14;;;;;;;4.80;3.20;;;;;;;14.04;100.00;100472.20;1758411;81;20849;-85
2022/10/26 06:47:52;;;;;;;8.90;7.17;;;;;;;14.07;100.00;100471.98;1757856;80;20885;-88
2022/10/26 06:50:31;;;;;;;5.10;4.33;;;;;;;14.12;100.00;100469.45;1758083;81;20948;-90
2022/10/26 06:53:21;;;;;;;6.92;5.28;;;;;;;14.15;100.00;100475.34;1758069;81;20926;-89
2022/10/26 06:55:48;;;;;;;5.20;4.70;;;;;;;14.19;100.00;100482.55;1759000;81;21175;-88
2022/10/26 06:58:22;;;;;;;7.90;6.15;;;;;;;14.22;100.00;100478.34;1757945;80;21449;-88
2022/10/26 07:00:50;;;;;;;7.10;6.30;;;;;;;14.27;100.00;100482.31;1760818;78;20865;-88
2022/10/26 07:03:18;;;;;;;6.42;5.75;;;;;;;14.32;100.00;100481.95;1761075;78;20928;-89
2022/10/26 07:05:46;;;;;;;6.75;6.15;;;;;;;14.34;100.00;100481.81;1758601;81;20920;-87
2022/10/26 07:08:13;;;;;;;6.80;6.20;;;;;;;14.38;100.00;100481.94;1758212;81;21326;-87
2022/10/26 07:10:41;;;;;;;7.62;6.92;;;;;;;14.44;100.00;100484.94;1758082;81;21478;-88
2022/10/26 07:13:08;;;;;;;8.53;7.40;;;;;;;14.44;100.00;100484.94;1758554;80;20896;-88
2022/10/26 07:15:37;;;;;;;9.45;7.72;;;;;;;14.47;100.00;100481.21;1764340;80;20865;-88
2022/10/26 07:18:05;;;;;;;9.83;8.83;;;;;;;14.51;100.00;100483.48;1755494;81;20912;-86
2022/10/26 07:20:38;;;;;;;11.55;10.38;;;;;;;14.54;100.00;100485.07;1755556;81;21158;-87
2022/10/26 07:23:09;;;;;;;16.12;12.33;;;;;;;14.57;100.00;100482.70;1755861;80;20873;-89
2022/10/26 07:25:38;;;;;;;18.27;13.35;;;;;;;14.59;100.00;100484.25;1755601;80;20932;-89
2022/10/26 07:28:10;;;;;;;24.12;16.02;;;;;;;14.62;100.00;100485.80;1755418;80;20983;-87
2022/10/26 07:30:37;;;;;;;24.20;15.85;;;;;;;14.65;100.00;100493.47;1755718;80;20885;-86
2022/10/26 07:33:08;;;;;;;23.07;16.62;;;;;;;14.65;100.00;100492.14;1755242;80;21114;-87
2022/10/26 09:35:25;;;;;;;18.98;15.28;;;;;;;14.06;100.00;100548.08;1833708;77;20922;-86
2022/10/26 09:38:35;;;;;;;20.15;16.00;;;;;;;14.11;100.00;100550.37;1840219;78;28586;-82
2022/10/26 09:41:22;;;;;;;23.87;16.73;;;;;;;14.12;100.00;100550.75;1838625;77;21476;-85
2022/10/26 09:44:03;;;;;;;19.60;13.98;;;;;;;14.16;100.00;100550.02;1830025;77;20924;-84
2022/10/26 09:46:41;;;;;;;18.80;14.40;;;;;;;14.21;100.00;100555.80;1823036;77;20871;-83
2022/10/26 09:49:10;;;;;;;20.08;13.62;;;;;;;14.23;100.00;100559.16;1841636;77;21414;-82
2022/10/26 09:51:37;;;;;;;18.62;15.13;;;;;;;14.23;100.00;100554.72;1845269;77;21018;-83
2022/10/26 09:54:12;;;;;;;17.95;14.55;;;;;;;14.26;100.00;100556.28;1845208;77;20915;-83
2022/10/26 09:56:39;;;;;;;21.10;15.38;;;;;;;14.30;100.00;100555.92;1847794;77;20975;-84
2022/10/26 09:59:05;;;;;;;21.40;15.20;;;;;;;14.37;100.00;100558.09;1836804;77;21081;-84
2022/10/26 10:01:34;;;;;;;18.42;12.75;;;;;;;14.43;100.00;100555.00;1846741;77;21137;-84
2022/10/26 10:04:21;;;;;;;16.10;12.45;;;;;;;14.43;100.00;100550.55;1840798;77;20863;-85
2022/10/26 10:07:01;;;;;;;15.70;11.85;;;;;;;14.45;100.00;100556.55;1836104;77;20941;-83
2022/10/26 10:09:28;;;;;;;14.68;11.68;;;;;;;14.51;100.00;100557.86;1837409;77;20934;-85
2022/10/26 10:11:59;;;;;;;11.03;9.48;;;;;;;14.51;100.00;100557.86;1827668;77;21050;-85
2022/10/26 10:14:29;;;;;;;8.63;7.72;;;;;;;14.56;100.00;100561.48;1839257;78;21827;-84
2022/10/26 10:17:01;;;;;;;8.20;7.12;;;;;;;14.58;100.00;100562.22;1833278;77;20928;-84
2022/10/26 10:19:33;;;;;;;24.12;21.15;;;;;;;14.57;100.00;100565.83;1834733;77;20934;-84
2022/10/26 10:22:11;;;;;;;6.83;6.15;;;;;;;14.56;100.00;100562.81;1831606;77;20932;-84
2022/10/26 10:24:43;;;;;;;10.25;9.23;;;;;;;14.58;100.00;100564.85;1837859;78;20967;-84
2022/10/26 10:27:17;;;;;;;6.95;5.67;;;;;;;14.57;99.96;100562.70;1804920;78;21246;-83
2022/10/26 10:29:49;;;;;;;5.30;4.80;;;;;;;14.60;100.00;100569.05;1837194;77;21002;-86
2022/10/26 10:32:20;;;;;;;6.37;5.15;;;;;;;14.65;99.93;100567.37;1830878;77;21465;-85
2022/10/26 10:34:51;;;;;;;5.83;5.22;;;;;;;14.67;99.64;100571.59;1842892;77;20998;-84
2022/10/26 10:37:38;;;;;;;7.45;4.53;;;;;;;14.72;99.34;100568.59;1832707;77;21018;-84
2022/10/26 10:40:18;;;;;;;6.08;4.67;;;;;;;14.75;99.13;100578.91;1835627;77;21250;-85
2022/10/26 10:42:44;;;;;;;5.58;5.08;;;;;;;14.79;98.86;100577.70;1835108;76;20880;-84
2022/10/26 10:45:21;;;;;;;6.08;5.53;;;;;;;14.79;98.43;100574.23;1837496;77;20894;-84
2022/10/26 10:48:14;;;;;;;6.03;5.53;;;;;;;14.79;98.11;100576.88;1839467;77;20903;-85
2022/10/26 10:50:56;;;;;;;7.05;6.45;;;;;;;14.81;98.02;100572.31;1781195;78;21051;-86
2022/10/26 10:53:43;;;;;;;7.78;7.05;;;;;;;14.81;97.76;100575.79;1826395;77;21155;-84
2022/10/26 10:56:46;;;;;;;8.90;8.00;;;;;;;14.82;97.56;100575.30;1834611;77;21101;-84
2022/10/26 10:59:54;;;;;;;9.50;8.53;;;;;;;14.85;97.60;100574.59;1833807;77;20940;-83
2022/10/26 11:03:09;;;;;;;11.50;10.45;;;;;;;14.87;97.43;100572.67;1792812;80;20977;-85
2022/10/26 11:06:01;;;;;;;16.62;11.22;;;;;;;14.88;97.12;100576.98;1803928;78;20936;-84
2022/10/26 11:08:49;;;;;;;13.18;11.83;;;;;;;14.88;96.70;100581.42;1780687;78;21339;-85
2022/10/26 11:11:25;;;;;;;16.20;13.35;;;;;;;14.87;96.21;100583.69;1810330;78;20896;-85
2022/10/26 11:14:07;;;;;;;16.62;13.78;;;;;;;14.86;96.19;100585.50;1791628;79;21009;-84
2022/10/26 11:16:42;;;;;;;17.73;15.28;;;;;;;14.85;95.97;100582.97;1792027;79;20885;-86
2022/10/26 11:19:20;;;;;;;15.78;13.95;;;;;;;14.82;95.85;100584.54;1791606;79;21625;-84
2022/10/26 11:21:52;;;;;;;16.35;14.63;;;;;;;14.84;95.96;100595.82;1798278;78;21151;-84
2022/10/26 11:24:33;;;;;;;92.37;67.87;;;;;;;14.86;95.79;100596.06;1793071;79;21142;-83
2022/10/26 11:27:23;;;;;;;17.27;14.23;;;;;;;14.84;95.25;100597.97;1821531;77;20867;-84
2022/10/26 11:30:08;;;;;;;16.82;15.13;;;;;;;14.84;95.33;100600.61;1853819;77;20895;-84
2022/10/26 11:32:44;;;;;;;;;;;;;;;14.85;95.46;100602.31;1832628;77;20900;-85
2022/10/26 11:35:35;;;;;;;16.45;14.68;;;;;;;14.88;95.38;100603.37;1828631;77;21157;-85
2022/10/26 11:38:30;;;;;;;18.62;16.10;;;;;;;14.84;94.80;100606.38;1855909;77;21435;-87
2022/10/26 11:41:26;;;;;;;15.67;14.03;;;;;;;14.76;94.66;100605.64;1838032;77;21448;-82
2022/10/26 11:44:20;;;;;;;18.98;16.73;;;;;;;14.74;94.80;100609.37;1856346;77;20851;-84
2022/10/26 11:47:03;;;;;;;17.23;12.98;;;;;;;14.69;94.28;100610.56;1831474;77;20927;-87
2022/10/26 11:49:52;;;;;;;14.68;13.18;;;;;;;14.56;93.82;100619.55;1830105;77;21816;-84
2022/10/26 11:52:36;;;;;;;13.95;12.53;;;;;;;14.40;93.74;100622.48;1830876;77;20973;-87
2022/10/26 11:55:03;;;;;;;14.18;12.68;;;;;;;14.27;94.15;100627.84;1840915;77;20975;-86
2022/10/26 11:57:34;;;;;;;16.20;13.48;;;;;;;14.18;94.56;100627.23;1847301;76;20939;-86
2022/10/26 12:00:19;;;;;;;14.30;12.35;;;;;;;14.10;94.83;100631.28;1842930;77;20868;-85
2022/10/26 12:02:56;;;;;;;18.75;16.82;;;;;;;14.01;95.14;100630.66;1855218;77;21134;-86
2022/10/26 12:05:41;;;;;;;15.85;14.15;;;;;;;13.94;95.58;100636.03;1814625;77;21169;-87
2022/10/26 12:08:23;;;;;;;16.73;14.73;;;;;;;13.91;95.93;100635.40;1838274;77;21393;-87
2022/10/26 12:11:37;;;;;;;13.08;10.65;;;;;;;13.84;96.15;100637.64;1826437;77;20977;-84
2022/10/26 12:14:12;;;;;;;13.98;11.48;;;;;;;13.79;96.64;100634.52;1821598;77;20975;-84
2022/10/26 12:16:53;;;;;;;12.73;11.18;;;;;;;13.78;97.26;100645.99;1826142;78;21189;-86
2022/10/26 12:19:40;;;;;;;16.82;12.85;;;;;;;13.76;97.30;100644.81;1832805;77;20958;-87
2022/10/26 12:22:11;;;;;;;20.55;12.35;;;;;;;13.76;97.69;100648.77;1834151;77;20888;-86
2022/10/26 12:24:43;;;;;;;15.15;13.43;;;;;;;13.80;97.92;100646.73;1838515;77;20896;-84
2022/10/26 12:27:31;;;;;;;14.75;12.23;;;;;;;13.79;97.65;100656.44;1805964;77;21034;-84
2022/10/26 12:30:22;;;;;;;16.57;13.28;;;;;;;13.76;97.72;100660.63;1841593;77;21111;-87
2022/10/26 12:32:55;;;;;;;15.23;12.37;;;;;;;13.74;97.72;100662.53;1842283;77;21004;-86
2022/10/26 12:35:42;;;;;;;15.10;12.85;;;;;;;13.74;97.72;100662.53;1844920;77;20880;-86
2022/10/26 12:38:27;;;;;;;16.10;12.93;;;;;;;13.74;97.95;100670.89;1845775;77;21456;-85
2022/10/26 12:41:22;;;;;;;16.27;13.03;;;;;;;13.79;98.18;100664.83;1842178;77;20971;-87
2022/10/26 12:43:49;;;;;;;16.23;14.00;;;;;;;13.82;97.87;100670.70;1843482;77;20935;-87
2022/10/26 12:46:27;;;;;;;14.70;13.25;;;;;;;13.83;97.64;100674.20;1842737;77;20868;-85
2022/10/26 12:48:58;;;;;;;15.80;12.30;;;;;;;13.84;97.66;100671.91;1835880;77;20967;-88
2022/10/26 12:51:32;;;;;;;16.55;12.43;;;;;;;13.83;97.30;100674.20;1844531;77;21420;-86
2022/10/26 12:54:12;;;;;;;14.68;12.88;;;;;;;13.79;97.06;100674.05;1842695;77;21401;-87
2022/10/26 12:56:55;;;;;;;12.68;11.48;;;;;;;13.81;97.31;100680.89;1834083;77;21078;-86
2022/10/26 12:59:37;;;;;;;12.15;10.95;;;;;;;13.82;97.05;100680.41;1845288;77;20955;-87
2022/10/26 13:02:30;;;;;;;12.15;10.88;;;;;;;13.78;96.71;100681.58;1840296;77;20884;-83
2022/10/26 13:05:17;;;;;;;12.63;11.33;;;;;;;13.73;96.73;100686.34;1848983;76;20868;-84
2022/10/26 13:07:44;;;;;;;15.28;13.68;;;;;;;13.67;96.72;100689.80;1844799;77;20868;-87
2022/10/26 13:10:17;;;;;;;10.95;9.95;;;;;;;13.65;96.91;100686.44;1842293;77;21011;-86
2022/10/26 13:12:59;;;;;;;13.98;12.78;;;;;;;13.63;96.72;100687.02;1845817;77;20927;-88
2022/10/26 13:15:40;;;;;;;12.60;11.35;;;;;;;13.60;96.90;100687.22;1841834;77;20972;-88
2022/10/26 13:18:18;;;;;;;10.65;9.65;;;;;;;13.58;96.76;100685.16;1839759;77;21619;-86
2022/10/26 13:21:06;;;;;;;10.78;8.40;;;;;;;13.55;96.53;100689.83;1842603;77;20956;-87
2022/10/26 13:23:36;;;;;;;9.53;8.63;;;;;;;13.55;96.66;100691.16;1842875;77;21128;-85
2022/10/26 13:26:08;;;;;;;10.40;9.10;;;;;;;13.54;96.47;100691.63;1840988;77;21021;-87
2022/10/26 13:28:51;;;;;;;9.40;7.45;;;;;;;13.52;96.17;100701.44;1844250;77;21378;-87
2022/10/26 13:31:40;;;;;;;9.10;7.70;;;;;;;13.48;96.14;100692.89;1845281;77;22444;-87
2022/10/26 13:34:19;;;;;;;8.95;8.05;;;;;;;13.48;96.16;100694.70;1835834;76;20902;-85
2022/10/26 13:37:23;;;;;;;6.53;5.62;;;;;;;13.48;96.05;100703.44;1856662;77;21105;-87
2022/10/26 13:39:58;;;;;;;7.22;6.62;;;;;;;13.45;95.81;100702.34;1823992;77;21392;-86
2022/10/26 13:42:27;;;;;;;10.48;9.35;;;;;;;13.42;95.87;100701.23;1836390;78;20932;-88
2022/10/26 13:45:11;;;;;;;6.97;6.28;;;;;;;13.43;96.03;100701.61;1826236;77;21034;-88
2022/10/26 13:47:48;;;;;;;7.55;6.85;;;;;;;13.44;95.91;100705.08;1810182;78;20951;-86
2022/10/26 13:50:22;;;;;;;7.12;6.53;;;;;;;13.42;95.71;100698.59;1841160;76;22132;-86
2022/10/26 13:52:51;;;;;;;8.40;7.47;;;;;;;13.42;95.37;100702.55;1845391;77;20898;-85
2022/10/26 13:55:31;;;;;;;6.42;5.83;;;;;;;13.41;95.45;100706.62;1835223;77;20882;-86